sensor_id;sensor_type;location;lat;lon;timestamp;pressure;altitude;pressure_sealevel;temperature
70123;BMP280;57489;37.404;24.920;2023-11-19T00:01:09;99819.38;;;20.67
70123;BMP280;57489;37.404;24.920;2023-11-19T00:06:11;99820.19;;;20.68
70123;BMP280;57489;37.404;24.920;2023-11-19T00:11:13;99824.63;;;20.64
70123;BMP280;57489;37.404;24.920;2023-11-19T00:16:17;99823.06;;;20.63
70123;BMP280;57489;37.404;24.920;2023-11-19T00:21:20;99840.50;;;20.60
70123;BMP280;57489;37.404;24.920;2023-11-19T00:26:22;99835.50;;;20.59
70123;BMP280;57489;37.404;24.920;2023-11-19T00:31:26;99835.16;;;20.60
70123;BMP280;57489;37.404;24.920;2023-11-19T00:36:29;99851.84;;;20.57
70123;BMP280;57489;37.404;24.920;2023-11-19T00:41:32;99852.16;;;20.56
70123;BMP280;57489;37.404;24.920;2023-11-19T00:46:35;99831.41;;;20.49
70123;BMP280;57489;37.404;24.920;2023-11-19T00:51:38;99827.81;;;20.45
70123;BMP280;57489;37.404;24.920;2023-11-19T00:56:40;99830.09;;;20.22
70123;BMP280;57489;37.404;24.920;2023-11-19T01:01:44;99842.34;;;19.81
70123;BMP280;57489;37.404;24.920;2023-11-19T01:06:46;99879.63;;;19.81
70123;BMP280;57489;37.404;24.920;2023-11-19T01:11:48;99906.09;;;19.78
70123;BMP280;57489;37.404;24.920;2023-11-19T01:16:52;99917.41;;;19.75
70123;BMP280;57489;37.404;24.920;2023-11-19T01:21:55;99906.97;;;19.70
70123;BMP280;57489;37.404;24.920;2023-11-19T01:26:57;99893.94;;;19.68
70123;BMP280;57489;37.404;24.920;2023-11-19T01:32:02;99893.41;;;19.62
70123;BMP280;57489;37.404;24.920;2023-11-19T01:37:04;99868.84;;;19.57
70123;BMP280;57489;37.404;24.920;2023-11-19T01:42:07;99880.91;;;19.54
70123;BMP280;57489;37.404;24.920;2023-11-19T01:47:10;99862.69;;;19.44
70123;BMP280;57489;37.404;24.920;2023-11-19T01:52:13;99870.22;;;19.33
70123;BMP280;57489;37.404;24.920;2023-11-19T01:57:15;99875.59;;;19.25
70123;BMP280;57489;37.404;24.920;2023-11-19T02:02:19;99888.09;;;19.24
70123;BMP280;57489;37.404;24.920;2023-11-19T02:07:24;99880.84;;;19.13
70123;BMP280;57489;37.404;24.920;2023-11-19T02:12:27;99880.44;;;19.23
70123;BMP280;57489;37.404;24.920;2023-11-19T02:17:31;99887.31;;;19.24
70123;BMP280;57489;37.404;24.920;2023-11-19T02:22:35;99897.34;;;19.27
70123;BMP280;57489;37.404;24.920;2023-11-19T02:27:49;99915.19;;;19.26
70123;BMP280;57489;37.404;24.920;2023-11-19T02:32:56;99907.81;;;19.23
70123;BMP280;57489;37.404;24.920;2023-11-19T02:37:59;99874.53;;;19.17
70123;BMP280;57489;37.404;24.920;2023-11-19T02:43:05;99872.38;;;19.10
70123;BMP280;57489;37.404;24.920;2023-11-19T02:48:09;99879.69;;;19.14
70123;BMP280;57489;37.404;24.920;2023-11-19T02:53:11;99875.50;;;19.13
70123;BMP280;57489;37.404;24.920;2023-11-19T02:58:15;99891.16;;;19.05
70123;BMP280;57489;37.404;24.920;2023-11-19T03:03:24;99894.03;;;18.92
70123;BMP280;57489;37.404;24.920;2023-11-19T03:08:31;99905.09;;;19.02
70123;BMP280;57489;37.404;24.920;2023-11-19T03:13:35;99897.09;;;19.02
70123;BMP280;57489;37.404;24.920;2023-11-19T03:18:37;99910.22;;;19.07
70123;BMP280;57489;37.404;24.920;2023-11-19T03:23:40;99938.69;;;19.07
70123;BMP280;57489;37.404;24.920;2023-11-19T03:28:43;99913.72;;;18.99
70123;BMP280;57489;37.404;24.920;2023-11-19T03:33:46;99916.16;;;19.04
70123;BMP280;57489;37.404;24.920;2023-11-19T03:38:48;99924.66;;;18.98
70123;BMP280;57489;37.404;24.920;2023-11-19T03:43:53;99932.66;;;18.89
70123;BMP280;57489;37.404;24.920;2023-11-19T03:48:56;99936.38;;;18.97
70123;BMP280;57489;37.404;24.920;2023-11-19T03:53:58;99946.25;;;18.96
70123;BMP280;57489;37.404;24.920;2023-11-19T03:59:02;99946.41;;;18.91
70123;BMP280;57489;37.404;24.920;2023-11-19T04:04:07;99936.38;;;18.97
70123;BMP280;57489;37.404;24.920;2023-11-19T04:09:09;99937.66;;;18.91
70123;BMP280;57489;37.404;24.920;2023-11-19T04:14:13;99935.63;;;18.88
70123;BMP280;57489;37.404;24.920;2023-11-19T04:19:15;99945.47;;;18.87
70123;BMP280;57489;37.404;24.920;2023-11-19T04:24:18;99940.81;;;18.84
70123;BMP280;57489;37.404;24.920;2023-11-19T04:29:21;99950.19;;;18.81
70123;BMP280;57489;37.404;24.920;2023-11-19T04:34:24;99953.59;;;18.91
70123;BMP280;57489;37.404;24.920;2023-11-19T04:39:26;99960.06;;;18.81
70123;BMP280;57489;37.404;24.920;2023-11-19T04:44:30;99956.13;;;18.78
70123;BMP280;57489;37.404;24.920;2023-11-19T04:49:32;99952.38;;;18.79
70123;BMP280;57489;37.404;24.920;2023-11-19T04:54:34;99953.16;;;18.80
70123;BMP280;57489;37.404;24.920;2023-11-19T04:59:38;99977.09;;;18.71
70123;BMP280;57489;37.404;24.920;2023-11-19T05:04:42;99981.00;;;18.74
70123;BMP280;57489;37.404;24.920;2023-11-19T05:09:45;99982.56;;;18.75
70123;BMP280;57489;37.404;24.920;2023-11-19T05:14:48;100001.63;;;18.77
70123;BMP280;57489;37.404;24.920;2023-11-19T05:19:51;99981.44;;;18.76
70123;BMP280;57489;37.404;24.920;2023-11-19T05:24:54;100005.38;;;18.76
70123;BMP280;57489;37.404;24.920;2023-11-19T05:29:58;100013.22;;;18.81
70123;BMP280;57489;37.404;24.920;2023-11-19T05:35:00;100011.78;;;18.83
70123;BMP280;57489;37.404;24.920;2023-11-19T05:40:03;100015.69;;;18.86
70123;BMP280;57489;37.404;24.920;2023-11-19T05:45:11;100019.56;;;18.97
70123;BMP280;57489;37.404;24.920;2023-11-19T05:50:14;100040.03;;;19.23
70123;BMP280;57489;37.404;24.920;2023-11-19T05:55:16;100041.06;;;19.48
70123;BMP280;57489;37.404;24.920;2023-11-19T06:00:21;100047.75;;;19.62
70123;BMP280;57489;37.404;24.920;2023-11-19T06:05:23;100044.63;;;19.60
70123;BMP280;57489;37.404;24.920;2023-11-19T06:10:26;100058.97;;;19.77
70123;BMP280;57489;37.404;24.920;2023-11-19T06:15:33;100077.09;;;19.54
70123;BMP280;57489;37.404;24.920;2023-11-19T06:20:35;100069.34;;;19.70
70123;BMP280;57489;37.404;24.920;2023-11-19T06:25:37;100074.50;;;20.04
70123;BMP280;57489;37.404;24.920;2023-11-19T06:30:41;100078.00;;;19.96
70123;BMP280;57489;37.404;24.920;2023-11-19T06:35:44;100088.72;;;20.17
70123;BMP280;57489;37.404;24.920;2023-11-19T06:40:46;100092.34;;;20.12
70123;BMP280;57489;37.404;24.920;2023-11-19T06:45:50;100097.13;;;20.28
70123;BMP280;57489;37.404;24.920;2023-11-19T06:50:53;100076.53;;;20.37
70123;BMP280;57489;37.404;24.920;2023-11-19T06:55:55;100104.22;;;20.45
70123;BMP280;57489;37.404;24.920;2023-11-19T07:00:59;100121.25;;;20.52
70123;BMP280;57489;37.404;24.920;2023-11-19T07:06:02;100126.94;;;20.42
70123;BMP280;57489;37.404;24.920;2023-11-19T07:11:04;100142.31;;;20.15
70123;BMP280;57489;37.404;24.920;2023-11-19T07:16:10;100150.41;;;20.28
70123;BMP280;57489;37.404;24.920;2023-11-19T07:21:12;100147.06;;;20.31
70123;BMP280;57489;37.404;24.920;2023-11-19T07:26:14;100156.19;;;20.30
70123;BMP280;57489;37.404;24.920;2023-11-19T07:31:18;100169.81;;;19.90
70123;BMP280;57489;37.404;24.920;2023-11-19T07:36:23;100173.66;;;19.37
70123;BMP280;57489;37.404;24.920;2023-11-19T07:41:25;100165.53;;;19.25
70123;BMP280;57489;37.404;24.920;2023-11-19T07:46:29;100173.97;;;19.27
70123;BMP280;57489;37.404;24.920;2023-11-19T07:51:32;100177.09;;;19.29
70123;BMP280;57489;37.404;24.920;2023-11-19T07:56:34;100179.28;;;19.27
70123;BMP280;57489;37.404;24.920;2023-11-19T08:01:38;100180.69;;;19.07
70123;BMP280;57489;37.404;24.920;2023-11-19T08:06:41;100177.09;;;19.29
70123;BMP280;57489;37.404;24.920;2023-11-19T08:11:43;100187.28;;;19.27
70123;BMP280;57489;37.404;24.920;2023-11-19T08:16:46;100199.19;;;19.47
70123;BMP280;57489;37.404;24.920;2023-11-19T08:21:49;100202.25;;;19.83
70123;BMP280;57489;37.404;24.920;2023-11-19T08:26:51;100202.63;;;20.11
70123;BMP280;57489;37.404;24.920;2023-11-19T08:31:55;100213.53;;;20.36
70123;BMP280;57489;37.404;24.920;2023-11-19T08:36:57;100213.13;;;21.05
70123;BMP280;57489;37.404;24.920;2023-11-19T08:41:59;100220.81;;;21.07
70123;BMP280;57489;37.404;24.920;2023-11-19T08:47:03;100222.25;;;21.25
70123;BMP280;57489;37.404;24.920;2023-11-19T08:52:06;100211.47;;;21.67
70123;BMP280;57489;37.404;24.920;2023-11-19T08:57:09;100210.63;;;21.42
70123;BMP280;57489;37.404;24.920;2023-11-19T09:02:13;100214.44;;;21.41
70123;BMP280;57489;37.404;24.920;2023-11-19T09:07:15;100224.50;;;21.35
70123;BMP280;57489;37.404;24.920;2023-11-19T09:12:18;100225.25;;;21.23
70123;BMP280;57489;37.404;24.920;2023-11-19T09:17:21;100237.31;;;21.42
70123;BMP280;57489;37.404;24.920;2023-11-19T09:22:24;100247.25;;;21.41
70123;BMP280;57489;37.404;24.920;2023-11-19T09:27:26;100252.34;;;21.46
70123;BMP280;57489;37.404;24.920;2023-11-19T09:32:30;100250.81;;;21.45
70123;BMP280;57489;37.404;24.920;2023-11-19T09:37:32;100254.03;;;21.51
70123;BMP280;57489;37.404;24.920;2023-11-19T09:42:40;100243.88;;;21.65
70123;BMP280;57489;37.404;24.920;2023-11-19T09:47:46;100245.38;;;21.54
70123;BMP280;57489;37.404;24.920;2023-11-19T09:52:49;100257.09;;;21.62
70123;BMP280;57489;37.404;24.920;2023-11-19T09:57:53;100253.84;;;21.56
70123;BMP280;57489;37.404;24.920;2023-11-19T10:02:56;100245.53;;;22.15
70123;BMP280;57489;37.404;24.920;2023-11-19T10:08:01;100243.41;;;21.96
70123;BMP280;57489;37.404;24.920;2023-11-19T10:13:03;100246.19;;;22.12
70123;BMP280;57489;37.404;24.920;2023-11-19T10:18:07;100235.06;;;22.35
70123;BMP280;57489;37.404;24.920;2023-11-19T10:23:09;100234.41;;;22.38
70123;BMP280;57489;37.404;24.920;2023-11-19T10:28:15;100230.91;;;21.88
70123;BMP280;57489;37.404;24.920;2023-11-19T10:33:19;100217.66;;;21.92
70123;BMP280;57489;37.404;24.920;2023-11-19T10:38:21;100226.00;;;21.90
70123;BMP280;57489;37.404;24.920;2023-11-19T10:43:24;100240.53;;;22.14
70123;BMP280;57489;37.404;24.920;2023-11-19T10:48:27;100251.63;;;22.03
70123;BMP280;57489;37.404;24.920;2023-11-19T10:53:31;100227.72;;;22.56
70123;BMP280;57489;37.404;24.920;2023-11-19T10:58:35;100231.22;;;22.84
70123;BMP280;57489;37.404;24.920;2023-11-19T11:03:42;100220.50;;;22.97
70123;BMP280;57489;37.404;24.920;2023-11-19T11:08:45;100213.56;;;23.08
70123;BMP280;57489;37.404;24.920;2023-11-19T11:13:49;100208.16;;;23.20
70123;BMP280;57489;37.404;24.920;2023-11-19T11:18:54;100216.41;;;23.43
70123;BMP280;57489;37.404;24.920;2023-11-19T11:24:19;100207.72;;;23.62
70123;BMP280;57489;37.404;24.920;2023-11-19T11:29:31;100208.91;;;23.80
70123;BMP280;57489;37.404;24.920;2023-11-19T11:34:58;100212.97;;;23.74
70123;BMP280;57489;37.404;24.920;2023-11-19T11:40:02;100230.16;;;23.29
70123;BMP280;57489;37.404;24.920;2023-11-19T11:45:11;100232.72;;;23.10
70123;BMP280;57489;37.404;24.920;2023-11-19T11:50:16;100224.22;;;23.20
70123;BMP280;57489;37.404;24.920;2023-11-19T11:55:19;100227.47;;;23.13
70123;BMP280;57489;37.404;24.920;2023-11-19T12:00:27;100230.09;;;23.26
70123;BMP280;57489;37.404;24.920;2023-11-19T12:05:31;100224.38;;;23.39
70123;BMP280;57489;37.404;24.920;2023-11-19T12:10:37;100231.81;;;23.34
70123;BMP280;57489;37.404;24.920;2023-11-19T12:21:27;100224.06;;;23.01
70123;BMP280;57489;37.404;24.920;2023-11-19T12:26:32;100212.84;;;22.83
70123;BMP280;57489;37.404;24.920;2023-11-19T12:31:35;100227.66;;;22.80
70123;BMP280;57489;37.404;24.920;2023-11-19T12:36:42;100227.81;;;23.00
70123;BMP280;57489;37.404;24.920;2023-11-19T12:41:51;100218.91;;;23.08
70123;BMP280;57489;37.404;24.920;2023-11-19T12:47:03;100232.72;;;23.10
70123;BMP280;57489;37.404;24.920;2023-11-19T12:52:17;100239.25;;;23.25
70123;BMP280;57489;37.404;24.920;2023-11-19T12:57:19;100230.75;;;22.95
70123;BMP280;57489;37.404;24.920;2023-11-19T13:02:21;100246.03;;;22.94
70123;BMP280;57489;37.404;24.920;2023-11-19T13:07:25;100257.53;;;22.82
70123;BMP280;57489;37.404;24.920;2023-11-19T13:12:27;100262.00;;;22.66
70123;BMP280;57489;37.404;24.920;2023-11-19T13:17:30;100256.88;;;22.49
70123;BMP280;57489;37.404;24.920;2023-11-19T13:22:33;100269.81;;;22.59
70123;BMP280;57489;37.404;24.920;2023-11-19T13:27:36;100272.06;;;22.57
70123;BMP280;57489;37.404;24.920;2023-11-19T13:32:38;100272.84;;;22.57
70123;BMP280;57489;37.404;24.920;2023-11-19T13:37:42;100271.41;;;22.48
70123;BMP280;57489;37.404;24.920;2023-11-19T13:42:45;100290.72;;;22.08
70123;BMP280;57489;37.404;24.920;2023-11-19T13:47:47;100294.72;;;21.90
70123;BMP280;57489;37.404;24.920;2023-11-19T13:52:51;100311.00;;;21.76
70123;BMP280;57489;37.404;24.920;2023-11-19T13:57:53;100313.94;;;21.62
70123;BMP280;57489;37.404;24.920;2023-11-19T14:02:55;100320.13;;;21.54
70123;BMP280;57489;37.404;24.920;2023-11-19T14:07:59;100332.78;;;21.45
70123;BMP280;57489;37.404;24.920;2023-11-19T14:13:02;100327.03;;;21.34
70123;BMP280;57489;37.404;24.920;2023-11-19T14:18:04;100329.56;;;21.31
70123;BMP280;57489;37.404;24.920;2023-11-19T14:23:08;100333.56;;;21.25
70123;BMP280;57489;37.404;24.920;2023-11-19T14:28:11;100341.25;;;21.17
70123;BMP280;57489;37.404;24.920;2023-11-19T14:33:13;100344.16;;;21.12
70123;BMP280;57489;37.404;24.920;2023-11-19T14:38:17;100342.75;;;21.06
70123;BMP280;57489;37.404;24.920;2023-11-19T14:43:19;100351.69;;;21.02
70123;BMP280;57489;37.404;24.920;2023-11-19T14:48:22;100364.47;;;20.96
70123;BMP280;57489;37.404;24.920;2023-11-19T14:53:25;100355.56;;;20.92
70123;BMP280;57489;37.404;24.920;2023-11-19T14:58:28;100362.59;;;20.88
70123;BMP280;57489;37.404;24.920;2023-11-19T15:03:30;100361.53;;;20.80
70123;BMP280;57489;37.404;24.920;2023-11-19T15:08:34;100368.25;;;20.95
70123;BMP280;57489;37.404;24.920;2023-11-19T15:13:37;100377.03;;;20.87
70123;BMP280;57489;37.404;24.920;2023-11-19T15:18:41;100380.81;;;20.86
70123;BMP280;57489;37.404;24.920;2023-11-19T15:23:45;100367.47;;;20.94
70123;BMP280;57489;37.404;24.920;2023-11-19T15:28:47;100379.25;;;20.85
70123;BMP280;57489;37.404;24.920;2023-11-19T15:33:49;100392.16;;;20.83
70123;BMP280;57489;37.404;24.920;2023-11-19T15:38:53;100390.38;;;20.95
70123;BMP280;57489;37.404;24.920;2023-11-19T15:43:56;100401.88;;;20.79
70123;BMP280;57489;37.404;24.920;2023-11-19T15:48:58;100412.81;;;20.86
70123;BMP280;57489;37.404;24.920;2023-11-19T15:54:02;100415.19;;;20.87
70123;BMP280;57489;37.404;24.920;2023-11-19T15:59:06;100411.16;;;20.73
70123;BMP280;57489;37.404;24.920;2023-11-19T16:04:08;100410.31;;;20.81
70123;BMP280;57489;37.404;24.920;2023-11-19T16:09:12;100418.50;;;20.76
70123;BMP280;57489;37.404;24.920;2023-11-19T16:14:15;100405.03;;;20.63
70123;BMP280;57489;37.404;24.920;2023-11-19T16:19:17;100410.03;;;20.74
70123;BMP280;57489;37.404;24.920;2023-11-19T16:24:21;100411.94;;;20.64
70123;BMP280;57489;37.404;24.920;2023-11-19T16:29:23;100420.72;;;20.74
70123;BMP280;57489;37.404;24.920;2023-11-19T16:34:26;100436.06;;;20.77
70123;BMP280;57489;37.404;24.920;2023-11-19T16:39:29;100440.97;;;20.66
70123;BMP280;57489;37.404;24.920;2023-11-19T16:44:32;100434.50;;;20.76
70123;BMP280;57489;37.404;24.920;2023-11-19T16:49:34;100429.16;;;20.67
70123;BMP280;57489;37.404;24.920;2023-11-19T16:54:38;100427.53;;;20.28
70123;BMP280;57489;37.404;24.920;2023-11-19T16:59:40;100419.69;;;20.23
70123;BMP280;57489;37.404;24.920;2023-11-19T17:04:43;100428.63;;;20.27
70123;BMP280;57489;37.404;24.920;2023-11-19T17:09:46;100431.72;;;20.29
70123;BMP280;57489;37.404;24.920;2023-11-19T17:14:48;100433.91;;;20.53
70123;BMP280;57489;37.404;24.920;2023-11-19T17:19:53;100427.50;;;20.54
70123;BMP280;57489;37.404;24.920;2023-11-19T17:24:58;100427.63;;;20.57
70123;BMP280;57489;37.404;24.920;2023-11-19T17:30:00;100433.75;;;20.66
70123;BMP280;57489;37.404;24.920;2023-11-19T17:35:05;100440.50;;;21.11
70123;BMP280;57489;37.404;24.920;2023-11-19T17:40:11;100437.03;;;21.48
70123;BMP280;57489;37.404;24.920;2023-11-19T17:45:17;100426.13;;;21.33
70123;BMP280;57489;37.404;24.920;2023-11-19T17:50:19;100431.63;;;21.57
70123;BMP280;57489;37.404;24.920;2023-11-19T17:55:24;100425.41;;;21.53
70123;BMP280;57489;37.404;24.920;2023-11-19T18:00:26;100439.84;;;21.52
70123;BMP280;57489;37.404;24.920;2023-11-19T18:05:28;100451.44;;;21.56
70123;BMP280;57489;37.404;24.920;2023-11-19T18:10:32;100453.28;;;21.35
70123;BMP280;57489;37.404;24.920;2023-11-19T18:15:34;100446.75;;;21.53
70123;BMP280;57489;37.404;24.920;2023-11-19T18:20:37;100445.19;;;21.52
70123;BMP280;57489;37.404;24.920;2023-11-19T18:25:41;100441.66;;;21.31
70123;BMP280;57489;37.404;24.920;2023-11-19T18:30:45;100433.13;;;21.16
70123;BMP280;57489;37.404;24.920;2023-11-19T18:35:47;100444.66;;;21.00
70123;BMP280;57489;37.404;24.920;2023-11-19T18:40:51;100431.44;;;21.03
70123;BMP280;57489;37.404;24.920;2023-11-19T18:45:53;100436.88;;;21.24
70123;BMP280;57489;37.404;24.920;2023-11-19T18:50:56;100436.97;;;21.36
70123;BMP280;57489;37.404;24.920;2023-11-19T18:56:00;100450.34;;;21.28
70123;BMP280;57489;37.404;24.920;2023-11-19T19:01:03;100457.09;;;21.25
70123;BMP280;57489;37.404;24.920;2023-11-19T19:06:06;100451.38;;;21.35
70123;BMP280;57489;37.404;24.920;2023-11-19T19:11:10;100455.94;;;21.35
70123;BMP280;57489;37.404;24.920;2023-11-19T19:16:13;100474.25;;;21.54
70123;BMP280;57489;37.404;24.920;2023-11-19T19:21:16;100479.97;;;21.35
70123;BMP280;57489;37.404;24.920;2023-11-19T19:26:20;100476.47;;;21.43
70123;BMP280;57489;37.404;24.920;2023-11-19T19:31:22;100483.13;;;21.37
70123;BMP280;57489;37.404;24.920;2023-11-19T19:36:25;100496.25;;;21.42
70123;BMP280;57489;37.404;24.920;2023-11-19T19:41:30;100515.59;;;21.39
70123;BMP280;57489;37.404;24.920;2023-11-19T19:46:32;100508.25;;;21.36
70123;BMP280;57489;37.404;24.920;2023-11-19T19:51:35;100489.56;;;21.36
70123;BMP280;57489;37.404;24.920;2023-11-19T19:56:39;100490.47;;;21.40
70123;BMP280;57489;37.404;24.920;2023-11-19T20:01:41;100488.75;;;21.35
70123;BMP280;57489;37.404;24.920;2023-11-19T20:06:43;100484.84;;;21.41
70123;BMP280;57489;37.404;24.920;2023-11-19T20:11:47;100489.19;;;21.16
70123;BMP280;57489;37.404;24.920;2023-11-19T20:16:51;100487.41;;;21.20
70123;BMP280;57489;37.404;24.920;2023-11-19T20:21:53;100481.69;;;21.31
70123;BMP280;57489;37.404;24.920;2023-11-19T20:26:57;100482.25;;;21.15
70123;BMP280;57489;37.404;24.920;2023-11-19T20:32:00;100489.28;;;21.29
70123;BMP280;57489;37.404;24.920;2023-11-19T20:37:02;100490.66;;;21.35
70123;BMP280;57489;37.404;24.920;2023-11-19T20:42:06;100495.09;;;21.22
70123;BMP280;57489;37.404;24.920;2023-11-19T20:47:09;100497.72;;;21.31
70123;BMP280;57489;37.404;24.920;2023-11-19T20:52:11;100497.06;;;21.04
70123;BMP280;57489;37.404;24.920;2023-11-19T20:57:15;100491.84;;;21.16
70123;BMP280;57489;37.404;24.920;2023-11-19T21:02:17;100497.47;;;21.23
70123;BMP280;57489;37.404;24.920;2023-11-19T21:07:21;100505.63;;;21.18
70123;BMP280;57489;37.404;24.920;2023-11-19T21:12:25;100506.53;;;21.31
70123;BMP280;57489;37.404;24.920;2023-11-19T21:17:27;100507.09;;;21.07
70123;BMP280;57489;37.404;24.920;2023-11-19T21:22:29;100507.38;;;21.14
70123;BMP280;57489;37.404;24.920;2023-11-19T21:27:33;100503.34;;;21.00
70123;BMP280;57489;37.404;24.920;2023-11-19T21:32:35;100498.44;;;21.10
70123;BMP280;57489;37.404;24.920;2023-11-19T21:37:38;100505.97;;;21.08
70123;BMP280;57489;37.404;24.920;2023-11-19T21:42:41;100497.69;;;20.92
70123;BMP280;57489;37.404;24.920;2023-11-19T21:47:44;100505.88;;;20.87
70123;BMP280;57489;37.404;24.920;2023-11-19T21:52:46;100491.59;;;20.92
70123;BMP280;57489;37.404;24.920;2023-11-19T21:57:50;100494.72;;;20.77
70123;BMP280;57489;37.404;24.920;2023-11-19T22:02:53;100494.09;;;20.80
70123;BMP280;57489;37.404;24.920;2023-11-19T22:07:55;100492.03;;;20.94
70123;BMP280;57489;37.404;24.920;2023-11-19T22:12:59;100486.88;;;20.89
70123;BMP280;57489;37.404;24.920;2023-11-19T22:18:02;100491.78;;;20.78
70123;BMP280;57489;37.404;24.920;2023-11-19T22:23:05;100494.72;;;20.77
70123;BMP280;57489;37.404;24.920;2023-11-19T22:28:09;100493.16;;;20.76
70123;BMP280;57489;37.404;24.920;2023-11-19T22:33:12;100487.38;;;20.74
70123;BMP280;57489;37.404;24.920;2023-11-19T22:38:14;100490.50;;;20.67
70123;BMP280;57489;37.404;24.920;2023-11-19T22:43:19;100488.63;;;20.76
70123;BMP280;57489;37.404;24.920;2023-11-19T22:48:22;100466.22;;;20.68
70123;BMP280;57489;37.404;24.920;2023-11-19T22:53:24;100463.84;;;20.67
70123;BMP280;57489;37.404;24.920;2023-11-19T22:58:28;100460.88;;;20.68
70123;BMP280;57489;37.404;24.920;2023-11-19T23:03:31;100446.44;;;20.69
70123;BMP280;57489;37.404;24.920;2023-11-19T23:08:33;100446.72;;;20.77
70123;BMP280;57489;37.404;24.920;2023-11-19T23:13:38;100444.41;;;20.75
70123;BMP280;57489;37.404;24.920;2023-11-19T23:18:41;100438.31;;;20.66
70123;BMP280;57489;37.404;24.920;2023-11-19T23:23:43;100437.66;;;20.60
70123;BMP280;57489;37.404;24.920;2023-11-19T23:28:47;100437.00;;;20.81
70123;BMP280;57489;37.404;24.920;2023-11-19T23:33:49;100453.50;;;20.83
70123;BMP280;57489;37.404;24.920;2023-11-19T23:38:52;100439.66;;;20.72
70123;BMP280;57489;37.404;24.920;2023-11-19T23:43:55;100440.31;;;20.69
70123;BMP280;57489;37.404;24.920;2023-11-19T23:48:58;100448.75;;;20.80
70123;BMP280;57489;37.404;24.920;2023-11-19T23:54:00;100459.47;;;20.71
70123;BMP280;57489;37.404;24.920;2023-11-19T23:59:03;100450.72;;;20.36
